OCS2110 SKSP-SBEG
Flight info
| Callsign | OCS2110 |
|---|---|
| Flight time | N/A |
| Altitude | 39000 |
| Route | BODED2B BODED DCT BUTAL DCT EYP UW88 ISLID DCT 00N066W DCT UKEDA |
| Aircraft | A388/J-SADE2E3FGHIJ3J4J5M1RWXY/LB1D1 |
Departure
| Time | N/A |
|---|---|
| Airport | Gustavo Rojas Pinilla International Airport (SKSP) |
Arrival
| Time | 2026-04-20 22:35 |
|---|---|
| Airport | Eduardo Gomes International Airport (SBEG) |
| Time | Latitude | Longitude | Altitude | Speed | Heading |
|---|---|---|---|---|---|
| 2026-04-20 19:15 | 11.59859 | -80.57714 | 29086 ft | 457 kts | 124° |
| 2026-04-20 19:15 | 11.58005 | -80.55120 | 29485 ft | 461 kts | 124° |
| 2026-04-20 19:15 | 11.56110 | -80.52470 | 29914 ft | 464 kts | 124° |
| 2026-04-20 19:15 | 11.54203 | -80.49803 | 30301 ft | 467 kts | 124° |
| 2026-04-20 19:16 | 11.52307 | -80.47154 | 30709 ft | 469 kts | 125° |
| 2026-04-20 19:16 | 11.50417 | -80.44514 | 31125 ft | 471 kts | 125° |
| 2026-04-20 19:16 | 11.48474 | -80.41800 | 31530 ft | 474 kts | 125° |
| 2026-04-20 19:16 | 11.46526 | -80.39080 | 31941 ft | 476 kts | 125° |
| 2026-04-20 19:17 | 11.44567 | -80.36346 | 32338 ft | 479 kts | 125° |
| 2026-04-20 19:17 | 11.42598 | -80.33598 | 32738 ft | 481 kts | 125° |
| 2026-04-20 19:17 | 11.40621 | -80.30840 | 33143 ft | 483 kts | 125° |
| 2026-04-20 19:17 | 11.38658 | -80.28102 | 33517 ft | 486 kts | 126° |
| 2026-04-20 19:18 | 11.36657 | -80.25312 | 33903 ft | 489 kts | 126° |
| 2026-04-20 19:18 | 11.34647 | -80.22509 | 34265 ft | 491 kts | 126° |
| 2026-04-20 19:18 | 11.32626 | -80.19694 | 34655 ft | 492 kts | 126° |
| 2026-04-20 19:18 | 11.30605 | -80.16879 | 35101 ft | 492 kts | 126° |
| 2026-04-20 19:19 | 11.28593 | -80.14076 | 35641 ft | 489 kts | 126° |
| 2026-04-20 19:19 | 11.26588 | -80.11284 | 36145 ft | 488 kts | 126° |
| 2026-04-20 19:19 | 11.24590 | -80.08502 | 36649 ft | 486 kts | 126° |
| 2026-04-20 19:19 | 11.22598 | -80.05730 | 37126 ft | 484 kts | 126° |
| 2026-04-20 19:20 | 11.20638 | -80.03003 | 37625 ft | 482 kts | 126° |
| 2026-04-20 19:20 | 11.18634 | -80.00216 | 38117 ft | 481 kts | 126° |
| 2026-04-20 19:20 | 11.16688 | -79.97509 | 38585 ft | 479 kts | 126° |
| 2026-04-20 19:20 | 11.14718 | -79.94769 | 38910 ft | 480 kts | 126° |
| 2026-04-20 19:21 | 11.12736 | -79.92014 | 38945 ft | 481 kts | 126° |
| 2026-04-20 19:21 | 11.08794 | -79.86538 | 38944 ft | 480 kts | 126° |
| 2026-04-20 19:22 | 11.04840 | -79.81047 | 38945 ft | 481 kts | 126° |
| 2026-04-20 19:22 | 11.00885 | -79.75558 | 38945 ft | 481 kts | 126° |
| 2026-04-20 19:23 | 10.96929 | -79.70071 | 38941 ft | 481 kts | 126° |
| 2026-04-20 19:23 | 10.92999 | -79.64620 | 38943 ft | 481 kts | 126° |
| 2026-04-20 19:24 | 10.89043 | -79.59139 | 38943 ft | 481 kts | 126° |
| 2026-04-20 19:24 | 10.85083 | -79.53654 | 38943 ft | 481 kts | 126° |
| 2026-04-20 19:25 | 10.81125 | -79.48174 | 38940 ft | 480 kts | 126° |
| 2026-04-20 19:25 | 10.77172 | -79.42704 | 38942 ft | 480 kts | 126° |
| 2026-04-20 19:26 | 10.73260 | -79.37295 | 38940 ft | 480 kts | 126° |
| 2026-04-20 19:26 | 10.69320 | -79.31847 | 38929 ft | 480 kts | 126° |
| 2026-04-20 19:27 | 10.65364 | -79.26382 | 38928 ft | 480 kts | 126° |
| 2026-04-20 19:27 | 10.61403 | -79.20911 | 38925 ft | 480 kts | 126° |
| 2026-04-20 19:28 | 10.57439 | -79.15441 | 38928 ft | 481 kts | 126° |
| 2026-04-20 19:28 | 10.53477 | -79.09975 | 38933 ft | 481 kts | 126° |
| 2026-04-20 19:29 | 10.49510 | -79.04504 | 38926 ft | 481 kts | 126° |
| 2026-04-20 19:29 | 10.45540 | -78.99033 | 38937 ft | 481 kts | 126° |
| 2026-04-20 19:30 | 10.41596 | -78.93599 | 38930 ft | 481 kts | 127° |
| 2026-04-20 19:30 | 10.37621 | -78.88127 | 38936 ft | 481 kts | 127° |
| 2026-04-20 19:31 | 10.33641 | -78.82650 | 38932 ft | 482 kts | 127° |
| 2026-04-20 19:31 | 10.29663 | -78.77178 | 38931 ft | 482 kts | 127° |
| 2026-04-20 19:32 | 10.25681 | -78.71702 | 38928 ft | 482 kts | 127° |
| 2026-04-20 19:32 | 10.21724 | -78.66266 | 38929 ft | 482 kts | 127° |
| 2026-04-20 19:33 | 10.17736 | -78.60788 | 38917 ft | 482 kts | 127° |
| 2026-04-20 19:33 | 10.13747 | -78.55311 | 38926 ft | 483 kts | 127° |
| 2026-04-20 19:34 | 10.09754 | -78.49831 | 38927 ft | 483 kts | 127° |
| 2026-04-20 19:34 | 10.05757 | -78.44350 | 38922 ft | 483 kts | 127° |
| 2026-04-20 19:35 | 10.01779 | -78.38896 | 38923 ft | 484 kts | 127° |
| 2026-04-20 19:35 | 9.97772 | -78.33406 | 38918 ft | 484 kts | 127° |
| 2026-04-20 19:36 | 9.93763 | -78.27914 | 38920 ft | 485 kts | 127° |
| 2026-04-20 19:36 | 9.89748 | -78.22418 | 38918 ft | 485 kts | 127° |
| 2026-04-20 19:37 | 9.85753 | -78.16952 | 38921 ft | 485 kts | 127° |
| 2026-04-20 19:37 | 9.81735 | -78.11456 | 38920 ft | 485 kts | 127° |
| 2026-04-20 19:38 | 9.77712 | -78.05956 | 38918 ft | 486 kts | 127° |
| 2026-04-20 19:38 | 9.73687 | -78.00456 | 38916 ft | 486 kts | 127° |
| 2026-04-20 19:39 | 9.69663 | -77.94959 | 38914 ft | 486 kts | 127° |
| 2026-04-20 19:39 | 9.65659 | -77.89493 | 38912 ft | 486 kts | 127° |
| 2026-04-20 19:40 | 9.61628 | -77.83993 | 38915 ft | 486 kts | 127° |
| 2026-04-20 19:40 | 9.57598 | -77.78497 | 38911 ft | 486 kts | 127° |
| 2026-04-20 19:41 | 9.53562 | -77.72994 | 38907 ft | 486 kts | 127° |
| 2026-04-20 19:41 | 9.49524 | -77.67491 | 38900 ft | 487 kts | 127° |
| 2026-04-20 19:42 | 9.45514 | -77.62028 | 38905 ft | 487 kts | 128° |
| 2026-04-20 19:42 | 9.41473 | -77.56527 | 38905 ft | 487 kts | 128° |
| 2026-04-20 19:43 | 9.37428 | -77.51022 | 38907 ft | 487 kts | 128° |
| 2026-04-20 19:43 | 9.33381 | -77.45517 | 38905 ft | 487 kts | 128° |
| 2026-04-20 19:44 | 9.29334 | -77.40014 | 38903 ft | 487 kts | 128° |
| 2026-04-20 19:44 | 9.25285 | -77.34511 | 38903 ft | 487 kts | 128° |
| 2026-04-20 19:45 | 9.21266 | -77.29051 | 38904 ft | 487 kts | 128° |
| 2026-04-20 19:45 | 9.17219 | -77.23555 | 38899 ft | 487 kts | 128° |
| 2026-04-20 19:46 | 9.13175 | -77.18066 | 38898 ft | 486 kts | 128° |
| 2026-04-20 19:46 | 9.09129 | -77.12576 | 38892 ft | 486 kts | 128° |
| 2026-04-20 19:47 | 9.05086 | -77.07093 | 38892 ft | 486 kts | 128° |
| 2026-04-20 19:47 | 9.01039 | -77.01607 | 38892 ft | 486 kts | 128° |
| 2026-04-20 19:48 | 8.97017 | -76.96158 | 38886 ft | 487 kts | 128° |
| 2026-04-20 19:48 | 8.92966 | -76.90671 | 38886 ft | 487 kts | 128° |
| 2026-04-20 19:49 | 8.88910 | -76.85179 | 38883 ft | 488 kts | 128° |
| 2026-04-20 19:49 | 8.84848 | -76.79681 | 38887 ft | 488 kts | 128° |
| 2026-04-20 19:50 | 8.80780 | -76.74179 | 38887 ft | 489 kts | 128° |
| 2026-04-20 19:50 | 8.76737 | -76.68712 | 38894 ft | 489 kts | 128° |
| 2026-04-20 19:51 | 8.72661 | -76.63203 | 38892 ft | 489 kts | 128° |
| 2026-04-20 19:51 | 8.68586 | -76.57696 | 38893 ft | 489 kts | 128° |
| 2026-04-20 19:52 | 8.64506 | -76.52187 | 38895 ft | 489 kts | 128° |
| 2026-04-20 19:52 | 8.60432 | -76.46685 | 38896 ft | 489 kts | 128° |
| 2026-04-20 19:53 | 8.56361 | -76.41192 | 38891 ft | 488 kts | 128° |
| 2026-04-20 19:53 | 8.52318 | -76.35739 | 38885 ft | 488 kts | 128° |
| 2026-04-20 19:54 | 8.48252 | -76.30257 | 38879 ft | 487 kts | 128° |
| 2026-04-20 19:54 | 8.44193 | -76.24786 | 38875 ft | 486 kts | 128° |
| 2026-04-20 19:55 | 8.40822 | -76.20245 | 38870 ft | 486 kts | 128° |
| 2026-04-20 19:55 | 8.36765 | -76.14781 | 38869 ft | 486 kts | 128° |
| 2026-04-20 19:56 | 8.32707 | -76.09318 | 38864 ft | 486 kts | 128° |
| 2026-04-20 19:56 | 8.27994 | -76.02975 | 38864 ft | 486 kts | 128° |
| 2026-04-20 19:57 | 8.24617 | -75.98433 | 38862 ft | 487 kts | 128° |
| 2026-04-20 19:57 | 8.20553 | -75.92969 | 38864 ft | 487 kts | 128° |
| 2026-04-20 19:58 | 8.16480 | -75.87492 | 38869 ft | 488 kts | 128° |
| 2026-04-20 19:58 | 8.12406 | -75.82018 | 38869 ft | 488 kts | 128° |
| 2026-04-20 19:59 | 8.08362 | -75.76586 | 38873 ft | 489 kts | 128° |
| 2026-04-20 19:59 | 8.04316 | -75.71153 | 39286 ft | 491 kts | 128° |
| 2026-04-20 19:59 | 8.02272 | -75.68409 | 39699 ft | 489 kts | 128° |
| 2026-04-20 20:00 | 8.00227 | -75.65666 | 40082 ft | 488 kts | 128° |
| 2026-04-20 20:00 | 7.98190 | -75.62931 | 40453 ft | 487 kts | 128° |
| 2026-04-20 20:00 | 7.96156 | -75.60202 | 40790 ft | 487 kts | 128° |
| 2026-04-20 20:01 | 7.92082 | -75.54736 | 40887 ft | 483 kts | 128° |
| 2026-04-20 20:01 | 7.88044 | -75.49321 | 40877 ft | 484 kts | 128° |
| 2026-04-20 20:02 | 7.83919 | -75.44003 | 40891 ft | 484 kts | 132° |
| 2026-04-20 20:02 | 7.79543 | -75.38846 | 40896 ft | 484 kts | 131° |
| 2026-04-20 20:03 | 7.75188 | -75.33669 | 40896 ft | 484 kts | 131° |
| 2026-04-20 20:03 | 7.70837 | -75.28505 | 40887 ft | 483 kts | 131° |
| 2026-04-20 20:04 | 7.66535 | -75.23406 | 40886 ft | 483 kts | 131° |
| 2026-04-20 20:04 | 7.62197 | -75.18266 | 40886 ft | 483 kts | 131° |
| 2026-04-20 20:05 | 7.57871 | -75.13142 | 40892 ft | 483 kts | 131° |
| 2026-04-20 20:05 | 7.53505 | -75.07974 | 40909 ft | 484 kts | 131° |
| 2026-04-20 20:06 | 7.49141 | -75.02809 | 40910 ft | 485 kts | 131° |
| 2026-04-20 20:06 | 7.44767 | -74.97633 | 40914 ft | 485 kts | 131° |
| 2026-04-20 20:07 | 7.40390 | -74.92457 | 40917 ft | 485 kts | 132° |
| 2026-04-20 20:07 | 7.36044 | -74.87318 | 40921 ft | 485 kts | 132° |
| 2026-04-20 20:08 | 7.31667 | -74.82144 | 40924 ft | 485 kts | 132° |
| 2026-04-20 20:08 | 7.27287 | -74.76970 | 40928 ft | 485 kts | 132° |
| 2026-04-20 20:09 | 7.22907 | -74.71795 | 40932 ft | 485 kts | 132° |
| 2026-04-20 20:09 | 7.18530 | -74.66627 | 40920 ft | 485 kts | 132° |
| 2026-04-20 20:10 | 7.14157 | -74.61466 | 40921 ft | 484 kts | 132° |
| 2026-04-20 20:10 | 7.09783 | -74.56303 | 40917 ft | 484 kts | 132° |
| 2026-04-20 20:11 | 7.05410 | -74.51146 | 40912 ft | 484 kts | 132° |
| 2026-04-20 20:11 | 7.01037 | -74.45988 | 40910 ft | 484 kts | 132° |
| 2026-04-20 20:12 | 6.96664 | -74.40833 | 40906 ft | 484 kts | 132° |
| 2026-04-20 20:12 | 6.92291 | -74.35680 | 40907 ft | 484 kts | 132° |
| 2026-04-20 20:13 | 6.85758 | -74.27984 | 40903 ft | 484 kts | 132° |
| 2026-04-20 20:13 | 6.81427 | -74.22883 | 40898 ft | 484 kts | 132° |
| 2026-04-20 20:14 | 6.77061 | -74.17744 | 40894 ft | 484 kts | 132° |
| 2026-04-20 20:14 | 6.72824 | -74.12757 | 40896 ft | 484 kts | 132° |
| 2026-04-20 20:15 | 6.68457 | -74.07619 | 40893 ft | 484 kts | 132° |
| 2026-04-20 20:15 | 6.64153 | -74.02558 | 40897 ft | 483 kts | 132° |
| 2026-04-20 20:16 | 6.59786 | -73.97422 | 40902 ft | 483 kts | 132° |
| 2026-04-20 20:16 | 6.58257 | -73.95625 | 40904 ft | 483 kts | 132° |
| 2026-04-20 20:17 | 6.55345 | -73.92202 | 40908 ft | 483 kts | 132° |
| 2026-04-20 20:17 | 6.51003 | -73.87099 | 40918 ft | 483 kts | 132° |
| 2026-04-20 20:18 | 6.46653 | -73.81989 | 40931 ft | 483 kts | 132° |
| 2026-04-20 20:18 | 6.42280 | -73.76852 | 40940 ft | 483 kts | 132° |
| 2026-04-20 20:19 | 6.37912 | -73.71724 | 40957 ft | 483 kts | 132° |
| 2026-04-20 20:19 | 6.33573 | -73.66630 | 40963 ft | 483 kts | 132° |
| 2026-04-20 20:20 | 6.29205 | -73.61504 | 40972 ft | 483 kts | 132° |
| 2026-04-20 20:20 | 6.24836 | -73.56381 | 40977 ft | 483 kts | 132° |
| 2026-04-20 20:21 | 6.20465 | -73.51254 | 40981 ft | 483 kts | 132° |
| 2026-04-20 20:21 | 6.16094 | -73.46129 | 40989 ft | 483 kts | 132° |
| 2026-04-20 20:22 | 6.11751 | -73.41038 | 40999 ft | 483 kts | 132° |
| 2026-04-20 20:22 | 6.07378 | -73.35914 | 41000 ft | 483 kts | 132° |
| 2026-04-20 20:23 | 6.03010 | -73.30797 | 41003 ft | 482 kts | 132° |
| 2026-04-20 20:23 | 5.98642 | -73.25681 | 41009 ft | 482 kts | 132° |
| 2026-04-20 20:24 | 5.94273 | -73.20564 | 41014 ft | 482 kts | 132° |
| 2026-04-20 20:24 | 5.89938 | -73.15490 | 41013 ft | 482 kts | 132° |
| 2026-04-20 20:25 | 5.85569 | -73.10378 | 41017 ft | 482 kts | 132° |
| 2026-04-20 20:25 | 5.81198 | -73.05266 | 41022 ft | 483 kts | 132° |
| 2026-04-20 20:26 | 5.76823 | -73.00148 | 41024 ft | 483 kts | 132° |
| 2026-04-20 20:26 | 5.72476 | -72.95064 | 41024 ft | 483 kts | 132° |
| 2026-04-20 20:27 | 5.68103 | -72.89952 | 41027 ft | 483 kts | 132° |
| 2026-04-20 20:27 | 5.63728 | -72.84839 | 41024 ft | 483 kts | 132° |
| 2026-04-20 20:28 | 5.59354 | -72.79728 | 41023 ft | 482 kts | 132° |
| 2026-04-20 20:28 | 5.54984 | -72.74623 | 41008 ft | 482 kts | 132° |
| 2026-04-20 20:29 | 5.50641 | -72.69551 | 40991 ft | 482 kts | 132° |
| 2026-04-20 20:29 | 5.46276 | -72.64454 | 40950 ft | 481 kts | 132° |
| 2026-04-20 20:30 | 5.41908 | -72.59355 | 40920 ft | 481 kts | 132° |
| 2026-04-20 20:30 | 5.37544 | -72.54263 | 40901 ft | 481 kts | 132° |
| 2026-04-20 20:31 | 5.33173 | -72.49162 | 40883 ft | 482 kts | 132° |
| 2026-04-20 20:31 | 5.28541 | -72.44405 | 40882 ft | 479 kts | 141° |
| 2026-04-20 20:32 | 5.23226 | -72.40403 | 40884 ft | 477 kts | 149° |
| 2026-04-20 20:32 | 5.17449 | -72.37153 | 40880 ft | 476 kts | 153° |
| 2026-04-20 20:33 | 5.11630 | -72.33983 | 40878 ft | 476 kts | 153° |
| 2026-04-20 20:33 | 5.05817 | -72.30814 | 40870 ft | 475 kts | 153° |
| 2026-04-20 20:34 | 5.00005 | -72.27651 | 40856 ft | 475 kts | 153° |
| 2026-04-20 20:34 | 4.94234 | -72.24513 | 40851 ft | 475 kts | 153° |
| 2026-04-20 20:35 | 4.88424 | -72.21353 | 40845 ft | 475 kts | 153° |
| 2026-04-20 20:35 | 4.82621 | -72.18199 | 40841 ft | 474 kts | 153° |
| 2026-04-20 20:36 | 4.76820 | -72.15047 | 40842 ft | 474 kts | 153° |
| 2026-04-20 20:36 | 4.71017 | -72.11893 | 40840 ft | 474 kts | 153° |
| 2026-04-20 20:37 | 4.65257 | -72.08764 | 40839 ft | 474 kts | 153° |
| 2026-04-20 20:37 | 4.59465 | -72.05618 | 40837 ft | 474 kts | 153° |
| 2026-04-20 20:38 | 4.53672 | -72.02472 | 40837 ft | 474 kts | 153° |
| 2026-04-20 20:38 | 4.47924 | -71.99351 | 40838 ft | 473 kts | 153° |
| 2026-04-20 20:39 | 4.42136 | -71.96209 | 40839 ft | 473 kts | 153° |
| 2026-04-20 20:39 | 4.36348 | -71.93068 | 40840 ft | 473 kts | 153° |
| 2026-04-20 20:40 | 4.30596 | -71.89947 | 40843 ft | 473 kts | 153° |
| 2026-04-20 20:40 | 4.24845 | -71.86826 | 40842 ft | 473 kts | 153° |
| 2026-04-20 20:41 | 4.19051 | -71.83683 | 40839 ft | 473 kts | 153° |
| 2026-04-20 20:41 | 4.13264 | -71.80544 | 40838 ft | 473 kts | 153° |
| 2026-04-20 20:42 | 4.07466 | -71.77400 | 40843 ft | 474 kts | 153° |
| 2026-04-20 20:42 | 4.01699 | -71.74273 | 40842 ft | 474 kts | 153° |
| 2026-04-20 20:43 | 3.95906 | -71.71132 | 40838 ft | 473 kts | 153° |
| 2026-04-20 20:43 | 3.90137 | -71.67949 | 40836 ft | 474 kts | 149° |
| 2026-04-20 20:44 | 3.84919 | -71.63917 | 40832 ft | 476 kts | 137° |
| 2026-04-20 20:44 | 3.80616 | -71.58943 | 40835 ft | 478 kts | 126° |
| 2026-04-20 20:45 | 3.76896 | -71.53410 | 40835 ft | 478 kts | 126° |
| 2026-04-20 20:45 | 3.73154 | -71.47900 | 40836 ft | 478 kts | 126° |
| 2026-04-20 20:46 | 3.69416 | -71.42387 | 40839 ft | 478 kts | 126° |
| 2026-04-20 20:46 | 3.65682 | -71.36874 | 40840 ft | 478 kts | 126° |
| 2026-04-20 20:47 | 3.61974 | -71.31399 | 40841 ft | 478 kts | 126° |
| 2026-04-20 20:47 | 3.58243 | -71.25891 | 40840 ft | 478 kts | 126° |
| 2026-04-20 20:48 | 3.54512 | -71.20385 | 40839 ft | 478 kts | 126° |
| 2026-04-20 20:48 | 3.50782 | -71.14882 | 40838 ft | 477 kts | 125° |
| 2026-04-20 20:49 | 3.47055 | -71.09383 | 40837 ft | 477 kts | 125° |
| 2026-04-20 20:49 | 3.43354 | -71.03924 | 40838 ft | 477 kts | 125° |
| 2026-04-20 20:50 | 3.39627 | -70.98428 | 40835 ft | 477 kts | 125° |
| 2026-04-20 20:50 | 3.35903 | -70.92935 | 40836 ft | 477 kts | 125° |
| 2026-04-20 20:51 | 3.32181 | -70.87448 | 40832 ft | 476 kts | 125° |
| 2026-04-20 20:51 | 3.28461 | -70.81965 | 40834 ft | 476 kts | 125° |
| 2026-04-20 20:52 | 3.24769 | -70.76523 | 40832 ft | 476 kts | 125° |
| 2026-04-20 20:52 | 3.21045 | -70.71035 | 40833 ft | 476 kts | 125° |
| 2026-04-20 20:53 | 3.17327 | -70.65557 | 40830 ft | 476 kts | 125° |
| 2026-04-20 20:53 | 3.13609 | -70.60080 | 40833 ft | 476 kts | 125° |
| 2026-04-20 20:54 | 3.09890 | -70.54601 | 40831 ft | 476 kts | 125° |
| 2026-04-20 20:54 | 3.06194 | -70.49158 | 40830 ft | 476 kts | 125° |
| 2026-04-20 20:55 | 3.02473 | -70.43678 | 40834 ft | 476 kts | 125° |
| 2026-04-20 20:55 | 2.98750 | -70.38197 | 40833 ft | 476 kts | 125° |
| 2026-04-20 20:56 | 2.95024 | -70.32711 | 40835 ft | 477 kts | 124° |
| 2026-04-20 20:56 | 2.91320 | -70.27259 | 40832 ft | 477 kts | 124° |
| 2026-04-20 20:57 | 2.87588 | -70.21767 | 40838 ft | 477 kts | 124° |
| 2026-04-20 20:57 | 2.83853 | -70.16271 | 40836 ft | 478 kts | 124° |
| 2026-04-20 20:58 | 2.80116 | -70.10771 | 40837 ft | 478 kts | 124° |
| 2026-04-20 20:58 | 2.76402 | -70.05308 | 40836 ft | 478 kts | 124° |
| 2026-04-20 20:59 | 2.72666 | -69.99812 | 40834 ft | 478 kts | 124° |
| 2026-04-20 20:59 | 2.68922 | -69.94306 | 40835 ft | 479 kts | 124° |
| 2026-04-20 21:00 | 2.65177 | -69.88798 | 40830 ft | 479 kts | 124° |
| 2026-04-20 21:00 | 2.61427 | -69.83285 | 40829 ft | 479 kts | 124° |
| 2026-04-20 21:01 | 2.57702 | -69.77808 | 40828 ft | 480 kts | 124° |
| 2026-04-20 21:01 | 2.53947 | -69.72288 | 40824 ft | 480 kts | 124° |
| 2026-04-20 21:02 | 2.50185 | -69.66758 | 40827 ft | 481 kts | 124° |
| 2026-04-20 21:02 | 2.46419 | -69.61223 | 40832 ft | 482 kts | 124° |
| 2026-04-20 21:03 | 2.42648 | -69.55682 | 40834 ft | 482 kts | 124° |
| 2026-04-20 21:03 | 2.38879 | -69.50144 | 40833 ft | 482 kts | 124° |
| 2026-04-20 21:04 | 2.35130 | -69.44636 | 40829 ft | 482 kts | 124° |
| 2026-04-20 21:04 | 2.31363 | -69.39102 | 40832 ft | 482 kts | 124° |
| 2026-04-20 21:05 | 2.27594 | -69.33566 | 40839 ft | 481 kts | 124° |
| 2026-04-20 21:05 | 2.23834 | -69.28043 | 40829 ft | 480 kts | 124° |
| 2026-04-20 21:06 | 2.20099 | -69.22559 | 40830 ft | 480 kts | 124° |
| 2026-04-20 21:06 | 2.16348 | -69.17052 | 40829 ft | 479 kts | 124° |
| 2026-04-20 21:07 | 2.12601 | -69.11550 | 40825 ft | 479 kts | 124° |
| 2026-04-20 21:07 | 2.08855 | -69.06049 | 40819 ft | 478 kts | 124° |
| 2026-04-20 21:08 | 2.05111 | -69.00553 | 40818 ft | 479 kts | 124° |
| 2026-04-20 21:08 | 2.01384 | -68.95083 | 40820 ft | 479 kts | 124° |
| 2026-04-20 21:09 | 1.97636 | -68.89582 | 40824 ft | 479 kts | 124° |
| 2026-04-20 21:09 | 1.93887 | -68.84080 | 40822 ft | 479 kts | 124° |
| 2026-04-20 21:10 | 1.90134 | -68.78574 | 40824 ft | 479 kts | 124° |
| 2026-04-20 21:10 | 1.86377 | -68.73061 | 40830 ft | 479 kts | 124° |
| 2026-04-20 21:11 | 1.82649 | -68.67591 | 40829 ft | 479 kts | 124° |
| 2026-04-20 21:11 | 1.78894 | -68.62083 | 40830 ft | 479 kts | 124° |
| 2026-04-20 21:12 | 1.75141 | -68.56577 | 40829 ft | 479 kts | 124° |
| 2026-04-20 21:12 | 1.71385 | -68.51068 | 40824 ft | 479 kts | 124° |
| 2026-04-20 21:13 | 1.67628 | -68.45559 | 40829 ft | 480 kts | 124° |
| 2026-04-20 21:13 | 1.63899 | -68.40090 | 40826 ft | 480 kts | 123° |
| 2026-04-20 21:14 | 1.60142 | -68.34581 | 40827 ft | 480 kts | 123° |
| 2026-04-20 21:14 | 1.56380 | -68.29064 | 40824 ft | 480 kts | 123° |
| 2026-04-20 21:15 | 1.52623 | -68.23556 | 40829 ft | 480 kts | 123° |
| 2026-04-20 21:15 | 1.48891 | -68.18084 | 40833 ft | 480 kts | 123° |
| 2026-04-20 21:16 | 1.45130 | -68.12571 | 40839 ft | 480 kts | 123° |
| 2026-04-20 21:16 | 1.41371 | -68.07061 | 40833 ft | 480 kts | 123° |
| 2026-04-20 21:17 | 1.37613 | -68.01552 | 40834 ft | 480 kts | 123° |
| 2026-04-20 21:17 | 1.33880 | -67.96081 | 40834 ft | 479 kts | 123° |
| 2026-04-20 21:18 | 1.30126 | -67.90579 | 40835 ft | 479 kts | 123° |
| 2026-04-20 21:18 | 1.26368 | -67.85072 | 40838 ft | 479 kts | 123° |
| 2026-04-20 21:19 | 1.22617 | -67.79574 | 40836 ft | 479 kts | 123° |
| 2026-04-20 21:20 | 1.17011 | -67.71360 | 40837 ft | 479 kts | 123° |
| 2026-04-20 21:20 | 1.13895 | -67.66795 | 40836 ft | 478 kts | 123° |
| 2026-04-20 21:21 | 1.09515 | -67.60377 | 40840 ft | 478 kts | 123° |
| 2026-04-20 21:21 | 1.05796 | -67.54928 | 40839 ft | 478 kts | 123° |
| 2026-04-20 21:22 | 1.02051 | -67.49443 | 40839 ft | 477 kts | 123° |
| 2026-04-20 21:22 | 0.98313 | -67.43966 | 40838 ft | 477 kts | 123° |
| 2026-04-20 21:23 | 0.94577 | -67.38494 | 40836 ft | 477 kts | 123° |
| 2026-04-20 21:23 | 0.90865 | -67.33056 | 40840 ft | 476 kts | 123° |
| 2026-04-20 21:24 | 0.87134 | -67.27592 | 40840 ft | 476 kts | 124° |
| 2026-04-20 21:24 | 0.83403 | -67.22128 | 40842 ft | 476 kts | 123° |
| 2026-04-20 21:25 | 0.79677 | -67.16670 | 40843 ft | 475 kts | 124° |
| 2026-04-20 21:25 | 0.75977 | -67.11251 | 40841 ft | 475 kts | 124° |
| 2026-04-20 21:26 | 0.72255 | -67.05801 | 40837 ft | 475 kts | 124° |
| 2026-04-20 21:26 | 0.68534 | -67.00352 | 40834 ft | 475 kts | 124° |
| 2026-04-20 21:27 | 0.64813 | -66.94903 | 40836 ft | 475 kts | 124° |
| 2026-04-20 21:27 | 0.61116 | -66.89489 | 40839 ft | 475 kts | 124° |
| 2026-04-20 21:28 | 0.57392 | -66.84035 | 40841 ft | 475 kts | 124° |
| 2026-04-20 21:28 | 0.53665 | -66.78578 | 40842 ft | 475 kts | 124° |
| 2026-04-20 21:29 | 0.49940 | -66.73124 | 40846 ft | 476 kts | 124° |
| 2026-04-20 21:29 | 0.46235 | -66.67699 | 40847 ft | 476 kts | 124° |
| 2026-04-20 21:30 | 0.42502 | -66.62234 | 40850 ft | 476 kts | 123° |
| 2026-04-20 21:30 | 0.38771 | -66.56770 | 40848 ft | 476 kts | 123° |
| 2026-04-20 21:31 | 0.35089 | -66.51381 | 40847 ft | 476 kts | 123° |
| 2026-04-20 21:31 | 0.31362 | -66.45924 | 40845 ft | 476 kts | 123° |
| 2026-04-20 21:32 | 0.27637 | -66.40471 | 40847 ft | 475 kts | 123° |
| 2026-04-20 21:32 | 0.23931 | -66.35045 | 40843 ft | 469 kts | 123° |
| 2026-04-20 21:33 | 0.20282 | -66.29703 | 40843 ft | 467 kts | 123° |
| 2026-04-20 21:33 | 0.16639 | -66.24368 | 40844 ft | 468 kts | 123° |
| 2026-04-20 21:34 | 0.12966 | -66.18991 | 40841 ft | 468 kts | 123° |
| 2026-04-20 21:34 | 0.09301 | -66.13626 | 40840 ft | 468 kts | 123° |
| 2026-04-20 21:35 | 0.05634 | -66.08258 | 40840 ft | 467 kts | 123° |
| 2026-04-20 21:35 | 0.01993 | -66.02927 | 40840 ft | 467 kts | 123° |
| 2026-04-20 21:36 | -0.01511 | -65.97470 | 40839 ft | 466 kts | 119° |
| 2026-04-20 21:36 | -0.04783 | -65.91886 | 40840 ft | 466 kts | 120° |
| 2026-04-20 21:37 | -0.08073 | -65.86303 | 40840 ft | 466 kts | 120° |
| 2026-04-20 21:37 | -0.11365 | -65.80718 | 40842 ft | 467 kts | 120° |
| 2026-04-20 21:38 | -0.14657 | -65.75130 | 40843 ft | 467 kts | 120° |
| 2026-04-20 21:38 | -0.17930 | -65.69575 | 40849 ft | 467 kts | 120° |
| 2026-04-20 21:39 | -0.21225 | -65.63981 | 40853 ft | 467 kts | 120° |
| 2026-04-20 21:39 | -0.24521 | -65.58385 | 40856 ft | 467 kts | 120° |
| 2026-04-20 21:40 | -0.27817 | -65.52791 | 40858 ft | 467 kts | 120° |
| 2026-04-20 21:40 | -0.31088 | -65.47239 | 40860 ft | 466 kts | 120° |
| 2026-04-20 21:41 | -0.34377 | -65.41655 | 40857 ft | 466 kts | 120° |
| 2026-04-20 21:41 | -0.37107 | -65.37021 | 40863 ft | 466 kts | 120° |
| 2026-04-20 21:42 | -0.40390 | -65.31448 | 40862 ft | 465 kts | 120° |
| 2026-04-20 21:42 | -0.43667 | -65.25884 | 40861 ft | 465 kts | 120° |
| 2026-04-20 21:43 | -0.46943 | -65.20323 | 40864 ft | 464 kts | 120° |
| 2026-04-20 21:43 | -0.50193 | -65.14805 | 40863 ft | 464 kts | 120° |
| 2026-04-20 21:44 | -0.53462 | -65.09255 | 40859 ft | 463 kts | 120° |
| 2026-04-20 21:44 | -0.56728 | -65.03710 | 40859 ft | 463 kts | 120° |
| 2026-04-20 21:45 | -0.59986 | -64.98178 | 40859 ft | 462 kts | 120° |
| 2026-04-20 21:45 | -0.63246 | -64.92643 | 40856 ft | 462 kts | 120° |
| 2026-04-20 21:46 | -0.66486 | -64.87142 | 40850 ft | 462 kts | 120° |
| 2026-04-20 21:46 | -0.69739 | -64.81618 | 40850 ft | 462 kts | 120° |
| 2026-04-20 21:47 | -0.72996 | -64.76089 | 40848 ft | 462 kts | 120° |
| 2026-04-20 21:47 | -0.76251 | -64.70560 | 40847 ft | 462 kts | 120° |
| 2026-04-20 21:48 | -0.79485 | -64.65069 | 40849 ft | 461 kts | 120° |
| 2026-04-20 21:48 | -0.82740 | -64.59541 | 40849 ft | 462 kts | 120° |
| 2026-04-20 21:49 | -0.85996 | -64.54011 | 40851 ft | 462 kts | 120° |
| 2026-04-20 21:49 | -0.89250 | -64.48485 | 40858 ft | 462 kts | 120° |
| 2026-04-20 21:50 | -0.92490 | -64.42982 | 40859 ft | 462 kts | 120° |
| 2026-04-20 21:50 | -0.95746 | -64.37451 | 40862 ft | 462 kts | 120° |
| 2026-04-20 21:51 | -0.99006 | -64.31913 | 40864 ft | 462 kts | 120° |
| 2026-04-20 21:51 | -1.02266 | -64.26376 | 40869 ft | 462 kts | 120° |
| 2026-04-20 21:52 | -1.05386 | -64.21076 | 40868 ft | 462 kts | 119° |
| 2026-04-20 21:52 | -1.08642 | -64.15545 | 40862 ft | 459 kts | 119° |
| 2026-04-20 21:53 | -1.11838 | -64.10117 | 40862 ft | 454 kts | 119° |
| 2026-04-20 21:53 | -1.15036 | -64.04681 | 40863 ft | 454 kts | 119° |
| 2026-04-20 21:54 | -1.18237 | -63.99243 | 40865 ft | 454 kts | 119° |
| 2026-04-20 21:54 | -1.21417 | -63.93839 | 40865 ft | 454 kts | 119° |
| 2026-04-20 21:55 | -1.24623 | -63.88390 | 40864 ft | 454 kts | 119° |
| 2026-04-20 21:55 | -1.27824 | -63.82951 | 40861 ft | 454 kts | 119° |
| 2026-04-20 21:56 | -1.31022 | -63.77515 | 40862 ft | 454 kts | 119° |
| 2026-04-20 21:56 | -1.34223 | -63.72075 | 40862 ft | 454 kts | 119° |
| 2026-04-20 21:57 | -1.37399 | -63.66677 | 40863 ft | 454 kts | 119° |
| 2026-04-20 21:57 | -1.40599 | -63.61237 | 40868 ft | 454 kts | 118° |
| 2026-04-20 21:58 | -1.43814 | -63.55771 | 40870 ft | 453 kts | 119° |
| 2026-04-20 21:58 | -1.46982 | -63.50385 | 40873 ft | 453 kts | 119° |
| 2026-04-20 21:59 | -1.50181 | -63.44947 | 40872 ft | 453 kts | 119° |
| 2026-04-20 21:59 | -1.53370 | -63.39524 | 40871 ft | 452 kts | 118° |
| 2026-04-20 22:00 | -1.56533 | -63.34144 | 40870 ft | 452 kts | 119° |
| 2026-04-20 22:00 | -1.59720 | -63.28726 | 40868 ft | 452 kts | 119° |
| 2026-04-20 22:01 | -1.62905 | -63.23308 | 40868 ft | 452 kts | 119° |
| 2026-04-20 22:01 | -1.66089 | -63.17893 | 40864 ft | 452 kts | 119° |
| 2026-04-20 22:02 | -1.69271 | -63.12480 | 40865 ft | 458 kts | 119° |
| 2026-04-20 22:02 | -1.72503 | -63.06982 | 40866 ft | 458 kts | 119° |
| 2026-04-20 22:03 | -1.75735 | -63.01485 | 40863 ft | 459 kts | 119° |
| 2026-04-20 22:03 | -1.78966 | -62.95988 | 40866 ft | 459 kts | 119° |
| 2026-04-20 22:04 | -1.82196 | -62.90491 | 40865 ft | 459 kts | 119° |
| 2026-04-20 22:04 | -1.85428 | -62.84992 | 40865 ft | 459 kts | 119° |
| 2026-04-20 22:05 | -1.88635 | -62.79533 | 40865 ft | 458 kts | 119° |
| 2026-04-20 22:05 | -1.91866 | -62.74034 | 40864 ft | 458 kts | 119° |
| 2026-04-20 22:06 | -1.95095 | -62.68538 | 40863 ft | 458 kts | 119° |
| 2026-04-20 22:06 | -1.98321 | -62.63046 | 40862 ft | 458 kts | 119° |
| 2026-04-20 22:07 | -2.01513 | -62.57566 | 40860 ft | 458 kts | 117° |
| 2026-04-20 22:07 | -2.04218 | -62.51809 | 40858 ft | 457 kts | 113° |
| 2026-04-20 22:08 | -2.06840 | -62.46005 | 40856 ft | 458 kts | 113° |
| 2026-04-20 22:08 | -2.09470 | -62.40203 | 40862 ft | 458 kts | 113° |
| 2026-04-20 22:09 | -2.12077 | -62.34442 | 40865 ft | 459 kts | 113° |
| 2026-04-20 22:09 | -2.14710 | -62.28621 | 40870 ft | 459 kts | 113° |
| 2026-04-20 22:10 | -2.17344 | -62.22795 | 40871 ft | 459 kts | 113° |
| 2026-04-20 22:10 | -2.19955 | -62.17022 | 40874 ft | 459 kts | 114° |
| 2026-04-20 22:11 | -2.22588 | -62.11199 | 40750 ft | 460 kts | 114° |
| 2026-04-20 22:11 | -2.23902 | -62.08291 | 40488 ft | 457 kts | 114° |
| 2026-04-20 22:11 | -2.25211 | -62.05396 | 40254 ft | 456 kts | 114° |
| 2026-04-20 22:11 | -2.26504 | -62.02535 | 39786 ft | 456 kts | 114° |
| 2026-04-20 22:12 | -2.27818 | -61.99627 | 39033 ft | 461 kts | 114° |
| 2026-04-20 22:12 | -2.29142 | -61.96698 | 38318 ft | 462 kts | 114° |
| 2026-04-20 22:12 | -2.30467 | -61.93766 | 37521 ft | 463 kts | 114° |
| 2026-04-20 22:12 | -2.31799 | -61.90820 | 36759 ft | 464 kts | 114° |
| 2026-04-20 22:13 | -2.33127 | -61.87880 | 36024 ft | 465 kts | 114° |
| 2026-04-20 22:13 | -2.34443 | -61.84970 | 35314 ft | 466 kts | 114° |
| 2026-04-20 22:13 | -2.35780 | -61.82010 | 34608 ft | 469 kts | 114° |
| 2026-04-20 22:13 | -2.37128 | -61.79025 | 33945 ft | 474 kts | 114° |
| 2026-04-20 22:14 | -2.38489 | -61.76012 | 33190 ft | 475 kts | 114° |
| 2026-04-20 22:14 | -2.39849 | -61.73002 | 32454 ft | 474 kts | 114° |
| 2026-04-20 22:14 | -2.41205 | -61.70000 | 31726 ft | 472 kts | 114° |
| 2026-04-20 22:14 | -2.42536 | -61.67055 | 31026 ft | 470 kts | 114° |
| 2026-04-20 22:15 | -2.43876 | -61.64088 | 30336 ft | 468 kts | 114° |
| 2026-04-20 22:15 | -2.45211 | -61.61131 | 29618 ft | 466 kts | 114° |
| 2026-04-20 22:15 | -2.46540 | -61.58188 | 28831 ft | 463 kts | 114° |
| 2026-04-20 22:15 | -2.47864 | -61.55256 | 28068 ft | 460 kts | 114° |
| 2026-04-20 22:16 | -2.49177 | -61.52347 | 27329 ft | 458 kts | 114° |
| 2026-04-20 22:16 | -2.50483 | -61.49456 | 26617 ft | 455 kts | 114° |
| 2026-04-20 22:16 | -2.51779 | -61.46585 | 25903 ft | 452 kts | 114° |
| 2026-04-20 22:16 | -2.53064 | -61.43737 | 25201 ft | 448 kts | 114° |
| 2026-04-20 22:17 | -2.54343 | -61.40905 | 24540 ft | 445 kts | 114° |
| 2026-04-20 22:17 | -2.55595 | -61.38130 | 23895 ft | 442 kts | 114° |
| 2026-04-20 22:17 | -2.56860 | -61.35328 | 23212 ft | 439 kts | 114° |
| 2026-04-20 22:17 | -2.58110 | -61.32558 | 22441 ft | 436 kts | 114° |
| 2026-04-20 22:18 | -2.59351 | -61.29807 | 21708 ft | 432 kts | 114° |
| 2026-04-20 22:18 | -2.60582 | -61.27079 | 20967 ft | 429 kts | 114° |
| 2026-04-20 22:18 | -2.61802 | -61.24375 | 20367 ft | 423 kts | 114° |
| 2026-04-20 22:18 | -2.63001 | -61.21717 | 19821 ft | 416 kts | 114° |
| 2026-04-20 22:19 | -2.64179 | -61.19106 | 19302 ft | 409 kts | 115° |
| 2026-04-20 22:19 | -2.65328 | -61.16558 | 18807 ft | 403 kts | 115° |
| 2026-04-20 22:19 | -2.66469 | -61.14029 | 18322 ft | 397 kts | 115° |
| 2026-04-20 22:19 | -2.67599 | -61.11524 | 17831 ft | 391 kts | 115° |
| 2026-04-20 22:20 | -2.68707 | -61.09066 | 17329 ft | 385 kts | 115° |
| 2026-04-20 22:20 | -2.69802 | -61.06638 | 16835 ft | 380 kts | 115° |
| 2026-04-20 22:20 | -2.70885 | -61.04237 | 16348 ft | 377 kts | 115° |
| 2026-04-20 22:20 | -2.71962 | -61.01849 | 15909 ft | 375 kts | 115° |
| 2026-04-20 22:21 | -2.73011 | -60.99522 | 15494 ft | 374 kts | 115° |
| 2026-04-20 22:21 | -2.74084 | -60.97143 | 15076 ft | 372 kts | 115° |
| 2026-04-20 22:21 | -2.75142 | -60.94797 | 14655 ft | 370 kts | 115° |
| 2026-04-20 22:21 | -2.76200 | -60.92451 | 14246 ft | 368 kts | 115° |
| 2026-04-20 22:22 | -2.77249 | -60.90123 | 13835 ft | 366 kts | 115° |
| 2026-04-20 22:22 | -2.78291 | -60.87812 | 13406 ft | 364 kts | 115° |
| 2026-04-20 22:22 | -2.79329 | -60.85509 | 12954 ft | 361 kts | 115° |
| 2026-04-20 22:22 | -2.80360 | -60.83222 | 12511 ft | 358 kts | 115° |
| 2026-04-20 22:23 | -2.81364 | -60.80994 | 12076 ft | 355 kts | 115° |
| 2026-04-20 22:23 | -2.82379 | -60.78743 | 11641 ft | 353 kts | 115° |
| 2026-04-20 22:23 | -2.83380 | -60.76521 | 11216 ft | 350 kts | 115° |
| 2026-04-20 22:23 | -2.84377 | -60.74309 | 10790 ft | 347 kts | 115° |
| 2026-04-20 22:24 | -2.85367 | -60.72113 | 10377 ft | 345 kts | 115° |
| 2026-04-20 22:24 | -2.86343 | -60.69947 | 10021 ft | 337 kts | 115° |
| 2026-04-20 22:24 | -2.87285 | -60.67856 | 9874 ft | 321 kts | 115° |
| 2026-04-20 22:24 | -2.88168 | -60.65894 | 9896 ft | 297 kts | 115° |
| 2026-04-20 22:25 | -2.88999 | -60.64047 | 9847 ft | 286 kts | 115° |
| 2026-04-20 22:25 | -2.89798 | -60.62273 | 9534 ft | 282 kts | 115° |
| 2026-04-20 22:25 | -2.90599 | -60.60496 | 9180 ft | 280 kts | 115° |
| 2026-04-20 22:25 | -2.91397 | -60.58726 | 8837 ft | 278 kts | 115° |
| 2026-04-20 22:26 | -2.92172 | -60.56961 | 8452 ft | 275 kts | 110° |
| 2026-04-20 22:26 | -2.92914 | -60.55207 | 8124 ft | 273 kts | 114° |
| 2026-04-20 22:26 | -2.93705 | -60.53483 | 7799 ft | 271 kts | 115° |
| 2026-04-20 22:27 | -2.95281 | -60.50077 | 7075 ft | 271 kts | 114° |
| 2026-04-20 22:27 | -2.96058 | -60.48372 | 6666 ft | 273 kts | 114° |
| 2026-04-20 22:27 | -2.96844 | -60.46632 | 6243 ft | 275 kts | 114° |
| 2026-04-20 22:27 | -2.97631 | -60.44886 | 5859 ft | 274 kts | 114° |
| 2026-04-20 22:28 | -2.98411 | -60.43152 | 5490 ft | 272 kts | 114° |
| 2026-04-20 22:28 | -2.99185 | -60.41433 | 5141 ft | 270 kts | 114° |
| 2026-04-20 22:28 | -2.99934 | -60.39769 | 4805 ft | 262 kts | 114° |
| 2026-04-20 22:28 | -3.00678 | -60.38117 | 4434 ft | 259 kts | 114° |
| 2026-04-20 22:29 | -3.01412 | -60.36486 | 4062 ft | 256 kts | 114° |
| 2026-04-20 22:29 | -3.02136 | -60.34878 | 3643 ft | 251 kts | 113° |
| 2026-04-20 22:29 | -3.02839 | -60.33315 | 3290 ft | 242 kts | 113° |
| 2026-04-20 22:29 | -3.03499 | -60.31802 | 2989 ft | 231 kts | 108° |
| 2026-04-20 22:30 | -3.03816 | -60.30286 | 2866 ft | 217 kts | 94° |
| 2026-04-20 22:30 | -3.03836 | -60.28803 | 2722 ft | 209 kts | 88° |
| 2026-04-20 22:30 | -3.03807 | -60.27397 | 2632 ft | 192 kts | 90° |
| 2026-04-20 22:30 | -3.03816 | -60.26081 | 2512 ft | 192 kts | 90° |
| 2026-04-20 22:31 | -3.03815 | -60.24747 | 2420 ft | 196 kts | 89° |
| 2026-04-20 22:31 | -3.03819 | -60.23387 | 2397 ft | 196 kts | 90° |
| 2026-04-20 22:31 | -3.03821 | -60.22023 | 2398 ft | 196 kts | 89° |
| 2026-04-20 22:31 | -3.03825 | -60.20661 | 2395 ft | 196 kts | 90° |
| 2026-04-20 22:32 | -3.03828 | -60.19296 | 2402 ft | 196 kts | 90° |
| 2026-04-20 22:32 | -3.03831 | -60.17932 | 2402 ft | 197 kts | 90° |
| 2026-04-20 22:32 | -3.03834 | -60.16560 | 2318 ft | 196 kts | 90° |
| 2026-04-20 22:32 | -3.03836 | -60.15234 | 2047 ft | 183 kts | 90° |
| 2026-04-20 22:33 | -3.03839 | -60.14034 | 1816 ft | 167 kts | 89° |
| 2026-04-20 22:33 | -3.03842 | -60.12895 | 1604 ft | 163 kts | 90° |
| 2026-04-20 22:33 | -3.03844 | -60.11783 | 1390 ft | 157 kts | 90° |
| 2026-04-20 22:33 | -3.03846 | -60.10712 | 1200 ft | 152 kts | 90° |
| 2026-04-20 22:34 | -3.03849 | -60.09686 | 1007 ft | 145 kts | 90° |
| 2026-04-20 22:34 | -3.03850 | -60.08682 | 810 ft | 145 kts | 89° |
| 2026-04-20 22:34 | -3.03852 | -60.07688 | 619 ft | 141 kts | 89° |
| 2026-04-20 22:34 | -3.03850 | -60.06721 | 394 ft | 141 kts | 89° |
| 2026-04-20 22:35 | -3.03851 | -60.05766 | 278 ft | 126 kts | 91° |
| 2026-04-20 22:35 | -3.03857 | -60.05069 | 276 ft | 81 kts | 90° |
| 2026-04-20 22:35 | -3.03861 | -60.04577 | 278 ft | 61 kts | 90° |
| 2026-04-20 22:35 | -3.03861 | -60.04203 | 277 ft | 48 kts | 90° |
| 2026-04-20 22:36 | -3.03863 | -60.03912 | 277 ft | 35 kts | 90° |
| 2026-04-20 22:36 | -3.03842 | -60.03801 | 276 ft | 13 kts | 49° |
| 2026-04-20 22:36 | -3.03764 | -60.03772 | 277 ft | 12 kts | 340° |
| 2026-04-20 22:36 | -3.03744 | -60.03783 | 277 ft | 4 kts | 326° |
| 2026-04-20 22:37 | -3.03702 | -60.03814 | 277 ft | 9 kts | 312° |
| 2026-04-20 22:37 | -3.03669 | -60.03903 | 277 ft | 18 kts | 286° |
| 2026-04-20 22:37 | -3.03633 | -60.04032 | 276 ft | 21 kts | 285° |
| 2026-04-20 22:37 | -3.03591 | -60.04184 | 276 ft | 24 kts | 289° |
| 2026-04-20 22:38 | -3.03497 | -60.04325 | 276 ft | 25 kts | 322° |
| 2026-04-20 22:38 | -3.03402 | -60.04370 | 276 ft | 10 kts | 338° |
| 2026-04-20 22:38 | -3.03330 | -60.04414 | 276 ft | 14 kts | 327° |
| 2026-04-20 22:38 | -3.03269 | -60.04438 | 276 ft | 2 kts | 346° |
| 2026-04-20 22:39 | -3.03267 | -60.04439 | 276 ft | 0 kts | 346° |